createdAt,value
2019-05-20T00:00:12.208Z,8.80
2019-05-20T00:02:41.293Z,8.97
2019-05-20T00:05:10.501Z,8.50
2019-05-20T00:07:39.516Z,9.63
2019-05-20T00:10:08.927Z,9.00
2019-05-20T00:12:37.925Z,9.10
2019-05-20T00:15:07.115Z,8.87
2019-05-20T00:17:36.066Z,9.27
2019-05-20T00:20:08.535Z,9.07
2019-05-20T00:22:37.511Z,9.43
2019-05-20T00:25:07.186Z,8.63
2019-05-20T00:27:36.223Z,9.43
2019-05-20T00:30:06.613Z,9.10
2019-05-20T00:32:41.008Z,8.87
2019-05-20T00:35:07.395Z,9.17
2019-05-20T00:37:36.347Z,8.60
2019-05-20T00:40:09.070Z,9.10
2019-05-20T00:42:38.097Z,9.47
2019-05-20T00:45:08.361Z,8.93
2019-05-20T00:47:37.362Z,9.07
2019-05-20T00:50:06.872Z,9.50
2019-05-20T00:52:35.826Z,9.80
2019-05-20T00:55:07.196Z,10.27
2019-05-20T00:57:36.334Z,9.77
2019-05-20T01:00:08.688Z,9.17
2019-05-20T01:02:37.767Z,9.23
2019-05-20T01:05:06.723Z,9.87
2019-05-20T01:07:35.739Z,10.23
2019-05-20T01:10:06.209Z,10.20
2019-05-20T01:12:35.174Z,10.70
2019-05-20T01:15:05.141Z,10.73
2019-05-20T01:17:34.111Z,10.97
2019-05-20T01:20:04.098Z,10.90
2019-05-20T01:22:33.041Z,11.47
2019-05-20T01:25:01.973Z,11.87
2019-05-20T01:27:30.967Z,11.00
2019-05-20T01:29:59.972Z,11.17
2019-05-20T01:32:28.961Z,10.83
2019-05-20T01:34:57.899Z,11.27
2019-05-20T01:37:26.894Z,10.77
2019-05-20T01:39:55.914Z,10.40
2019-05-20T01:42:24.922Z,9.27
2019-05-20T01:44:53.852Z,9.83
2019-05-20T01:47:22.910Z,10.07
2019-05-20T01:49:51.925Z,11.07
2019-05-20T01:52:20.975Z,10.67
2019-05-20T01:54:49.908Z,11.07
2019-05-20T01:57:18.847Z,9.97
2019-05-20T01:59:47.804Z,10.87
2019-05-20T02:02:16.814Z,11.03
2019-05-20T02:04:45.769Z,11.77
2019-05-20T02:07:14.775Z,10.47
2019-05-20T02:09:43.734Z,10.73
2019-05-20T02:12:12.663Z,10.10
2019-05-20T02:14:43.278Z,11.00
2019-05-20T02:17:12.301Z,11.03
2019-05-20T02:19:41.258Z,11.50
2019-05-20T02:22:10.314Z,11.50
2019-05-20T02:24:39.269Z,12.97
2019-05-20T02:27:08.220Z,11.83
2019-05-20T02:29:37.245Z,11.20
2019-05-20T02:32:06.184Z,11.30
2019-05-20T02:34:35.203Z,12.37
2019-05-20T02:37:04.223Z,11.60
2019-05-20T02:39:33.210Z,12.70
2019-05-20T02:42:02.176Z,12.93
2019-05-20T02:44:31.127Z,11.40
2019-05-20T02:47:00.070Z,12.10
2019-05-20T02:49:29.038Z,10.20
2019-05-20T02:51:58.058Z,9.97
2019-05-20T02:54:27.080Z,10.20
2019-05-20T02:56:56.014Z,10.43
2019-05-20T02:59:25.032Z,10.97
2019-05-20T03:01:53.983Z,10.70
2019-05-20T03:04:22.937Z,10.93
2019-05-20T03:06:51.950Z,10.80
2019-05-20T03:09:20.957Z,11.00
2019-05-20T03:11:49.940Z,11.17
2019-05-20T03:14:18.903Z,10.07
2019-05-20T03:16:47.898Z,10.60
2019-05-20T03:19:16.823Z,10.37
2019-05-20T03:21:45.841Z,10.27
2019-05-20T03:24:14.919Z,12.17
2019-05-20T03:26:43.944Z,12.20
2019-05-20T03:29:13.314Z,12.97
2019-05-20T03:31:42.269Z,12.33
2019-05-20T03:34:38.829Z,12.87
2019-05-20T03:36:41.946Z,12.80
2019-05-20T03:39:10.878Z,13.83
2019-05-20T03:41:39.858Z,12.50
2019-05-20T03:44:08.799Z,13.33
2019-05-20T03:46:37.855Z,13.63
2019-05-20T03:49:06.854Z,12.70
2019-05-20T03:51:35.875Z,12.87
2019-05-20T03:54:04.935Z,12.97
2019-05-20T03:56:34.048Z,13.00
2019-05-20T03:59:02.988Z,13.13
2019-05-20T04:01:31.943Z,12.53
2019-05-20T04:04:00.888Z,12.63
2019-05-20T04:06:29.855Z,13.00
2019-05-20T04:08:58.910Z,12.70
2019-05-20T04:11:27.919Z,13.00
2019-05-20T04:13:56.860Z,13.07
2019-05-20T04:16:25.822Z,12.50
2019-05-20T04:18:54.778Z,12.40
2019-05-20T04:21:24.050Z,13.43
2019-05-20T04:23:53.276Z,12.53
2019-05-20T04:26:22.202Z,12.50
2019-05-20T04:28:51.749Z,11.93
2019-05-20T04:31:20.683Z,12.97
2019-05-20T04:33:49.676Z,12.73
2019-05-20T04:36:18.683Z,13.30
2019-05-20T04:38:47.659Z,12.17
2019-05-20T04:41:16.659Z,12.93
2019-05-20T04:43:45.627Z,13.13
2019-05-20T04:46:14.631Z,13.10
2019-05-20T04:48:43.605Z,12.63
2019-05-20T04:51:12.547Z,13.40
2019-05-20T04:53:41.494Z,12.73
2019-05-20T04:56:10.474Z,13.40
2019-05-20T05:01:15.199Z,12.50
2019-05-20T05:03:44.240Z,13.43
2019-05-20T05:06:13.683Z,13.63
2019-05-20T05:08:42.709Z,12.97
2019-05-20T05:11:11.628Z,13.53
2019-05-20T05:13:40.590Z,13.13
2019-05-20T05:16:09.583Z,14.73
2019-05-20T05:18:38.610Z,14.97
2019-05-20T05:21:07.555Z,15.90
2019-05-20T05:23:36.574Z,15.13
2019-05-20T05:26:05.786Z,15.40
2019-05-20T05:28:34.743Z,15.73
2019-05-20T05:31:03.698Z,15.23
2019-05-20T05:33:32.674Z,16.37
2019-05-20T05:36:01.666Z,16.90
2019-05-20T05:38:30.662Z,17.30
2019-05-20T05:40:59.727Z,16.77
2019-05-20T05:43:28.767Z,16.37
2019-05-20T05:45:57.727Z,18.40
2019-05-20T05:48:26.669Z,17.73
2019-05-20T05:50:55.621Z,18.50
2019-05-20T05:53:24.554Z,18.40
2019-05-20T05:55:53.522Z,17.80
2019-05-20T05:58:22.459Z,17.67
2019-05-20T06:00:51.555Z,18.33
2019-05-20T06:03:20.493Z,22.30
2019-05-20T06:05:49.455Z,22.93
2019-05-20T06:08:18.489Z,21.77
2019-05-20T06:10:47.841Z,23.13
2019-05-20T06:13:16.822Z,22.37
2019-05-20T06:15:45.776Z,23.53
2019-05-20T06:18:14.733Z,24.90
2019-05-20T06:20:43.702Z,27.03
2019-05-20T06:23:12.642Z,24.57
2019-05-20T06:25:41.643Z,24.97
2019-05-20T06:28:10.575Z,23.43
2019-05-20T06:30:41.562Z,25.73
2019-05-20T06:33:10.934Z,23.50
2019-05-20T06:35:40.467Z,23.97
2019-05-20T06:38:20.185Z,23.77
2019-05-20T06:40:49.142Z,24.63
2019-05-20T06:43:18.072Z,23.37
2019-05-20T06:45:47.017Z,23.90
2019-05-20T06:48:15.969Z,24.23
2019-05-20T06:50:44.951Z,25.43
2019-05-20T06:53:14.017Z,24.10
2019-05-20T06:55:43.079Z,27.00
2019-05-20T06:58:12.025Z,27.03
2019-05-20T07:00:41.105Z,27.63
2019-05-20T07:03:10.210Z,26.70
2019-05-20T07:05:39.281Z,27.50
2019-05-20T07:08:08.310Z,28.80
2019-05-20T07:10:37.242Z,28.20
2019-05-20T07:13:06.270Z,28.67
2019-05-20T07:15:35.282Z,27.13
2019-05-20T07:18:04.371Z,28.60
2019-05-20T07:20:33.314Z,27.27
2019-05-20T07:23:02.332Z,28.17
2019-05-20T07:25:31.270Z,27.03
2019-05-20T07:28:00.304Z,28.57
2019-05-20T07:30:29.326Z,29.60
2019-05-20T07:32:58.291Z,29.37
2019-05-20T07:35:30.821Z,29.33
2019-05-20T07:37:58.142Z,29.63
2019-05-20T07:40:31.361Z,29.73
2019-05-20T07:43:00.500Z,29.50
2019-05-20T07:45:32.537Z,29.37
2019-05-20T07:48:01.744Z,29.93
2019-05-20T07:50:31.195Z,31.33
2019-05-20T07:53:00.768Z,30.77
2019-05-20T07:55:33.153Z,29.73
2019-05-20T07:58:05.186Z,33.03
2019-05-20T08:00:34.397Z,32.20
2019-05-20T08:03:03.609Z,33.57
2019-05-20T08:05:32.561Z,32.17
2019-05-20T08:08:01.576Z,31.43
2019-05-20T08:10:30.746Z,33.77
2019-05-20T08:12:59.687Z,32.60
2019-05-20T08:15:28.718Z,33.33
2019-05-20T08:17:57.654Z,32.17
2019-05-20T08:20:26.609Z,31.73
2019-05-20T08:22:56.011Z,32.17
2019-05-20T08:25:25.038Z,31.40
2019-05-20T08:27:54.041Z,30.77
2019-05-20T08:30:31.670Z,32.43
2019-05-20T08:33:00.837Z,29.93
2019-05-20T08:35:29.814Z,32.03
2019-05-20T08:37:58.902Z,32.37
2019-05-20T08:40:28.134Z,31.43
2019-05-20T08:42:57.063Z,31.40
2019-05-20T08:45:26.098Z,32.60
2019-05-20T08:47:55.187Z,31.47
2019-05-20T08:50:24.227Z,31.17
2019-05-20T08:52:53.335Z,30.47
2019-05-20T08:55:22.350Z,32.27
2019-05-20T08:57:51.368Z,31.60
2019-05-20T09:00:24.103Z,30.63
2019-05-20T09:02:53.326Z,29.97
2019-05-20T09:05:22.515Z,29.83
2019-05-20T09:08:02.163Z,29.00
2019-05-20T09:10:22.299Z,30.17
2019-05-20T09:12:51.359Z,31.70
2019-05-20T09:15:20.611Z,33.10
2019-05-20T09:17:49.654Z,35.60
2019-05-20T09:20:18.998Z,52.00
2019-05-20T09:22:48.123Z,37.40
2019-05-20T09:25:18.822Z,31.23
2019-05-20T09:27:47.915Z,36.83
2019-05-20T09:30:17.290Z,36.70
2019-05-20T09:32:46.707Z,33.60
2019-05-20T09:35:15.783Z,65.37
2019-05-20T09:37:44.746Z,33.57
2019-05-20T09:40:16.870Z,32.87
2019-05-20T09:42:45.838Z,32.50
2019-05-20T09:45:15.029Z,33.00
2019-05-20T09:47:44.055Z,32.40
2019-05-20T09:50:13.055Z,33.30
2019-05-20T09:52:42.018Z,37.43
2019-05-20T09:55:11.102Z,34.43
2019-05-20T09:57:40.140Z,34.53
2019-05-20T10:00:09.579Z,32.77
2019-05-20T10:02:38.751Z,31.93
2019-05-20T10:05:08.249Z,31.63
2019-05-20T10:07:37.268Z,32.43
2019-05-20T10:10:07.793Z,32.83
2019-05-20T10:12:45.984Z,33.17
2019-05-20T10:15:09.091Z,49.73
2019-05-20T10:17:38.129Z,32.83
2019-05-20T10:20:08.320Z,33.33
2019-05-20T10:22:37.276Z,41.40
2019-05-20T10:25:07.729Z,32.83
2019-05-20T10:27:36.739Z,32.60
2019-05-20T10:30:08.453Z,33.13
2019-05-20T10:32:37.591Z,31.60
2019-05-20T10:35:07.382Z,32.30
2019-05-20T10:37:36.323Z,30.60
2019-05-20T10:40:07.419Z,30.73
2019-05-20T10:42:36.363Z,29.87
2019-05-20T10:45:06.580Z,29.93
2019-05-20T10:47:35.587Z,30.17
2019-05-20T10:50:06.582Z,30.27
2019-05-20T10:52:35.535Z,30.10
2019-05-20T10:55:06.132Z,38.00
2019-05-20T10:57:35.143Z,30.53
2019-05-20T11:00:05.644Z,44.73
2019-05-20T11:02:34.572Z,36.03
2019-05-20T11:05:04.983Z,30.63
2019-05-20T11:07:34.050Z,29.27
2019-05-20T11:10:04.167Z,30.03
2019-05-20T11:12:33.092Z,30.80
2019-05-20T11:15:02.509Z,29.93
2019-05-20T11:17:31.812Z,31.90
2019-05-20T11:20:00.838Z,33.57
2019-05-20T11:22:29.853Z,33.50
2019-05-20T11:24:58.812Z,42.00
2019-05-20T11:27:30.415Z,30.10
2019-05-20T11:29:59.391Z,29.10
2019-05-20T11:32:28.329Z,31.07
2019-05-20T11:34:57.293Z,39.63
2019-05-20T11:37:26.299Z,33.83
2019-05-20T11:39:55.275Z,33.87
2019-05-20T11:42:24.250Z,43.70
2019-05-20T11:44:53.223Z,33.93
2019-05-20T11:47:22.187Z,30.40
2019-05-20T11:49:51.147Z,41.20
2019-05-20T11:52:20.535Z,35.63
2019-05-20T11:54:49.494Z,30.63
2019-05-20T11:57:18.465Z,29.03
2019-05-20T11:59:47.401Z,37.40
2019-05-20T12:02:16.367Z,31.07
2019-05-20T12:04:45.321Z,31.97
2019-05-20T12:07:14.353Z,30.97
2019-05-20T12:09:49.618Z,31.17
2019-05-20T12:12:13.960Z,36.13
2019-05-20T12:14:42.965Z,34.30
2019-05-20T12:17:11.991Z,29.77
2019-05-20T12:19:42.297Z,32.17
2019-05-20T12:22:11.261Z,31.83
2019-05-20T12:24:40.188Z,31.40
2019-05-20T12:27:09.180Z,30.30
2019-05-20T12:29:38.454Z,30.03
2019-05-20T12:32:07.420Z,31.03
2019-05-20T12:34:36.469Z,31.80
2019-05-20T12:37:05.546Z,29.30
2019-05-20T12:39:34.490Z,30.93
2019-05-20T12:42:03.538Z,30.70
2019-05-20T12:44:32.523Z,32.23
2019-05-20T12:47:01.479Z,29.90
2019-05-20T12:49:30.524Z,32.43
2019-05-20T12:51:59.676Z,29.37
2019-05-20T12:54:28.618Z,30.00
2019-05-20T12:56:57.575Z,31.53
2019-05-20T12:59:26.529Z,31.03
2019-05-20T13:01:55.486Z,30.37
2019-05-20T13:04:24.422Z,32.20
2019-05-20T13:06:53.370Z,30.60
2019-05-20T13:09:22.360Z,32.43
2019-05-20T13:11:51.307Z,30.67
2019-05-20T13:14:20.258Z,31.87
2019-05-20T13:16:49.367Z,32.13
2019-05-20T13:19:18.326Z,31.77
2019-05-20T13:21:47.332Z,32.97
2019-05-20T13:24:16.316Z,33.20
2019-05-20T13:26:45.571Z,32.83
2019-05-20T13:29:14.754Z,33.10
2019-05-20T13:31:43.748Z,38.13
2019-05-20T13:34:12.711Z,32.90
2019-05-20T13:36:41.748Z,31.97
2019-05-20T13:39:10.879Z,30.70
2019-05-20T13:41:39.946Z,31.83
2019-05-20T13:44:08.941Z,31.80
2019-05-20T13:46:37.934Z,30.57
2019-05-20T13:49:06.982Z,29.57
2019-05-20T13:51:38.526Z,29.80
2019-05-20T13:54:06.740Z,30.87
2019-05-20T13:56:35.691Z,30.97
2019-05-20T13:59:04.829Z,29.17
2019-05-20T14:01:33.838Z,30.27
2019-05-20T14:04:02.820Z,30.03
2019-05-20T14:06:31.776Z,29.53
2019-05-20T14:09:00.755Z,30.53
2019-05-20T14:11:34.735Z,29.60
2019-05-20T14:14:00.446Z,30.17
2019-05-20T14:16:29.394Z,30.00
2019-05-20T14:18:58.322Z,30.80
2019-05-20T14:21:27.305Z,30.57
2019-05-20T14:23:56.234Z,32.60
2019-05-20T14:26:25.290Z,31.93
2019-05-20T14:28:54.294Z,32.33
2019-05-20T14:31:23.323Z,32.03
2019-05-20T14:33:52.266Z,32.70
2019-05-20T14:36:38.471Z,33.80
2019-05-20T14:38:52.065Z,32.27
2019-05-20T14:41:22.167Z,38.63
2019-05-20T14:43:51.330Z,35.33
2019-05-20T14:46:20.298Z,37.23
2019-05-20T14:48:49.298Z,33.93
2019-05-20T14:51:18.459Z,35.10
2019-05-20T14:53:47.411Z,34.40
2019-05-20T14:56:16.446Z,34.30
2019-05-20T14:58:45.382Z,33.13
2019-05-20T15:01:14.353Z,39.97
2019-05-20T15:03:43.292Z,32.30
2019-05-20T15:06:12.406Z,36.83
2019-05-20T15:08:41.398Z,35.47
2019-05-20T15:11:10.397Z,33.67
2019-05-20T15:13:39.332Z,35.23
2019-05-20T15:16:08.346Z,35.53
2019-05-20T15:18:37.328Z,35.70
2019-05-20T15:21:06.450Z,34.30
2019-05-20T15:23:35.503Z,35.53
2019-05-20T15:26:04.617Z,35.57
2019-05-20T15:28:33.624Z,36.10
2019-05-20T15:31:02.657Z,36.10
2019-05-20T15:33:31.642Z,37.27
2019-05-20T15:36:00.588Z,38.93
2019-05-20T15:38:29.562Z,36.27
2019-05-20T15:40:58.494Z,37.63
2019-05-20T15:43:27.494Z,35.53
2019-05-20T15:45:56.526Z,34.70
2019-05-20T15:48:25.511Z,38.47
2019-05-20T15:50:54.636Z,36.73
2019-05-20T15:53:23.681Z,35.77
2019-05-20T15:55:53.142Z,37.70
2019-05-20T15:58:23.836Z,34.93
2019-05-20T16:00:52.785Z,38.00
2019-05-20T16:03:21.834Z,38.63
2019-05-20T16:05:50.775Z,39.60
2019-05-20T16:08:19.751Z,37.73
2019-05-20T16:10:48.758Z,37.60
2019-05-20T16:13:17.729Z,38.53
2019-05-20T16:15:46.658Z,35.57
2019-05-20T16:18:15.627Z,36.60
2019-05-20T16:20:44.646Z,39.30
2019-05-20T16:23:13.693Z,39.20
2019-05-20T16:25:42.631Z,33.50
2019-05-20T16:28:11.599Z,36.67
2019-05-20T16:30:40.573Z,39.40
2019-05-20T16:33:09.566Z,37.03
2019-05-20T16:35:38.494Z,35.93
2019-05-20T16:38:07.450Z,36.80
2019-05-20T16:40:36.645Z,37.07
2019-05-20T16:43:05.659Z,36.13
2019-05-20T16:45:34.644Z,36.27
2019-05-20T16:48:03.752Z,36.67
2019-05-20T16:50:32.787Z,43.00
2019-05-20T16:53:01.806Z,39.60
2019-05-20T16:55:30.838Z,23.60
2019-05-20T16:57:59.792Z,12.17
2019-05-20T17:00:32.056Z,7.50
2019-05-20T17:02:59.737Z,7.43
2019-05-20T17:05:28.700Z,4.87
2019-05-20T17:07:57.654Z,4.93
2019-05-20T17:10:26.794Z,4.87
2019-05-20T17:12:55.722Z,4.20
2019-05-20T17:15:24.678Z,4.20
2019-05-20T17:17:53.721Z,4.10
2019-05-20T17:20:22.798Z,4.27
2019-05-20T17:22:51.893Z,4.30
2019-05-20T17:25:21.057Z,4.10
2019-05-20T17:27:50.357Z,4.70
2019-05-20T17:30:19.420Z,4.03
2019-05-20T17:32:48.384Z,4.20
2019-05-20T17:35:17.330Z,4.37
2019-05-20T17:37:46.294Z,8.47
2019-05-20T17:40:17.571Z,5.90
2019-05-20T17:42:46.682Z,7.40
2019-05-20T17:45:16.374Z,6.00
2019-05-20T17:47:45.491Z,5.60
2019-05-20T17:50:15.761Z,4.50
2019-05-20T17:52:44.842Z,5.10
2019-05-20T17:55:38.895Z,5.80
2019-05-20T17:58:08.074Z,5.83
2019-05-20T18:00:36.997Z,5.87
2019-05-20T18:03:06.005Z,7.37
2019-05-20T18:05:35.094Z,7.13
2019-05-20T18:08:04.270Z,7.80
2019-05-20T18:10:33.341Z,7.00
2019-05-20T18:13:02.471Z,8.70
2019-05-20T18:15:31.946Z,9.10
2019-05-20T18:18:01.083Z,8.43
2019-05-20T18:20:30.073Z,8.33
2019-05-20T18:22:59.349Z,12.33
2019-05-20T18:25:28.282Z,14.83
2019-05-20T18:27:57.345Z,15.20
2019-05-20T18:30:26.531Z,15.80
2019-05-20T18:32:55.711Z,15.90
2019-05-20T18:35:24.739Z,18.07
2019-05-20T18:37:53.885Z,22.63
2019-05-20T18:40:22.830Z,24.87
2019-05-20T18:42:51.950Z,26.10
2019-05-20T18:45:20.902Z,26.87
2019-05-20T18:47:49.974Z,33.53
2019-05-20T18:50:19.293Z,38.37
2019-05-20T18:52:48.255Z,47.37
2019-05-20T18:55:17.457Z,45.13
2019-05-20T18:57:46.407Z,22.53
2019-05-20T19:00:17.006Z,17.33
2019-05-20T19:02:46.048Z,12.53
2019-05-20T19:05:15.210Z,16.53
2019-05-20T19:07:44.684Z,16.30
2019-05-20T19:10:14.519Z,15.80
2019-05-20T19:12:43.491Z,14.13
2019-05-20T19:15:12.903Z,14.20
2019-05-20T19:17:41.954Z,16.07
2019-05-20T19:20:11.024Z,20.07
2019-05-20T19:22:40.002Z,18.03
2019-05-20T19:25:09.448Z,19.90
2019-05-20T19:27:38.481Z,21.90
2019-05-20T19:30:08.964Z,19.30
2019-05-20T19:32:38.163Z,19.27
2019-05-20T19:35:08.650Z,19.60
2019-05-20T19:37:37.753Z,21.73
2019-05-20T19:40:08.022Z,20.40
2019-05-20T19:42:37.941Z,20.67
2019-05-20T19:45:07.522Z,21.27
2019-05-20T19:47:36.472Z,20.07
2019-05-20T19:50:07.282Z,21.10
2019-05-20T19:52:36.326Z,23.37
2019-05-20T19:55:08.549Z,23.60
2019-05-20T19:57:37.489Z,28.13
2019-05-20T20:00:10.036Z,27.40
2019-05-20T20:02:39.075Z,29.67
2019-05-20T20:05:09.202Z,29.87
2019-05-20T20:07:38.286Z,30.33
2019-05-20T20:10:07.814Z,31.70
2019-05-20T20:12:40.077Z,35.80
2019-05-20T20:15:10.953Z,38.00
2019-05-20T20:17:39.944Z,35.30
2019-05-20T20:20:09.216Z,35.83
2019-05-20T20:22:38.200Z,38.07
2019-05-20T20:25:07.542Z,34.50
2019-05-20T20:27:36.509Z,37.73
2019-05-20T20:30:06.543Z,36.73
2019-05-20T20:32:38.329Z,37.70
2019-05-20T20:35:07.566Z,36.27
2019-05-20T20:37:36.576Z,36.90
2019-05-20T20:40:06.143Z,36.07
2019-05-20T20:42:35.227Z,35.93
2019-05-20T20:45:05.365Z,37.87
2019-05-20T20:47:41.660Z,36.43
2019-05-20T20:50:06.128Z,38.53
2019-05-20T20:52:42.494Z,38.93
2019-05-20T20:55:11.750Z,38.90
2019-05-20T20:57:40.788Z,38.37
2019-05-20T21:00:10.421Z,37.23
2019-05-20T21:02:52.301Z,36.30
2019-05-20T21:05:10.200Z,38.73
2019-05-20T21:07:39.453Z,39.57
2019-05-20T21:10:08.827Z,37.50
2019-05-20T21:12:37.851Z,38.77
2019-05-20T21:15:07.175Z,40.23
2019-05-20T21:17:36.222Z,39.43
2019-05-20T21:20:06.605Z,40.00
2019-05-20T21:22:35.763Z,38.67
2019-05-20T21:25:06.392Z,38.53
2019-05-20T21:27:35.435Z,41.87
2019-05-20T21:30:06.617Z,48.17
2019-05-20T21:32:35.551Z,47.57
2019-05-20T21:35:05.576Z,39.00
2019-05-20T21:37:34.519Z,39.07
2019-05-20T21:40:03.938Z,36.97
2019-05-20T21:42:32.919Z,36.97
2019-05-20T21:45:01.881Z,37.83
2019-05-20T21:47:30.799Z,36.20
2019-05-20T21:49:59.760Z,37.40
2019-05-20T21:52:28.687Z,35.60
2019-05-20T21:54:57.742Z,34.57
2019-05-20T21:57:26.689Z,33.03
2019-05-20T21:59:55.671Z,33.63
2019-05-20T22:02:26.634Z,33.70
2019-05-20T22:04:55.458Z,32.20
2019-05-20T22:07:24.419Z,37.33
2019-05-20T22:09:53.364Z,32.43
2019-05-20T22:12:22.311Z,34.20
2019-05-20T22:14:51.306Z,32.17
2019-05-20T22:17:20.254Z,32.77
2019-05-20T22:19:49.220Z,33.00
2019-05-20T22:22:25.687Z,32.20
2019-05-20T22:24:54.658Z,32.10
2019-05-20T22:27:23.672Z,31.60
2019-05-20T22:29:52.705Z,30.27
2019-05-20T22:32:21.787Z,32.30
2019-05-20T22:34:53.431Z,33.47
2019-05-20T22:37:21.398Z,33.60
2019-05-20T22:39:50.359Z,31.30
2019-05-20T22:42:19.281Z,31.30
2019-05-20T22:44:48.234Z,30.33
2019-05-20T22:47:17.195Z,30.80
2019-05-20T22:49:46.314Z,32.43
2019-05-20T22:52:15.249Z,30.70
2019-05-20T22:54:44.178Z,31.20
2019-05-20T22:57:13.180Z,31.47
2019-05-20T22:59:42.154Z,33.13
2019-05-20T23:02:11.122Z,32.87
2019-05-20T23:04:40.122Z,30.87
2019-05-20T23:07:09.110Z,32.13
2019-05-20T23:09:38.035Z,34.20
2019-05-20T23:12:07.044Z,32.83
2019-05-20T23:14:35.990Z,43.87
2019-05-20T23:17:04.991Z,48.20
2019-05-20T23:19:33.962Z,52.80
2019-05-20T23:22:03.031Z,49.23
2019-05-20T23:24:31.967Z,39.13
2019-05-20T23:27:00.924Z,40.20
2019-05-20T23:29:29.855Z,32.83
2019-05-20T23:31:58.813Z,33.93
2019-05-20T23:34:27.966Z,34.63
2019-05-20T23:36:56.955Z,37.83
2019-05-20T23:39:25.938Z,32.33
2019-05-20T23:41:54.925Z,37.27
2019-05-20T23:44:23.910Z,37.77
2019-05-20T23:46:52.881Z,32.20
2019-05-20T23:49:21.835Z,32.03
2019-05-20T23:51:50.907Z,31.23
2019-05-20T23:54:19.842Z,27.90
2019-05-20T23:56:48.777Z,32.33
2019-05-20T23:59:17.814Z,32.97
